sensor_id;sensor_type;location;lat;lon;timestamp;pressure;altitude;pressure_sealevel;temperature;humidity
77171;BME280;66144;50.020;14.422;2023-09-12T00:02:04;98557.59;;;20.18;75.55
77171;BME280;66144;50.020;14.422;2023-09-12T00:04:33;98552.31;;;20.18;75.08
77171;BME280;66144;50.020;14.422;2023-09-12T00:06:58;98552.00;;;20.11;75.58
77171;BME280;66144;50.020;14.422;2023-09-12T00:09:23;98555.56;;;20.06;75.78
77171;BME280;66144;50.020;14.422;2023-09-12T00:11:49;98543.25;;;20.01;75.38
77171;BME280;66144;50.020;14.422;2023-09-12T00:14:17;98559.94;;;20.02;75.39
77171;BME280;66144;50.020;14.422;2023-09-12T00:16:43;98553.25;;;19.96;75.57
77171;BME280;66144;50.020;14.422;2023-09-12T00:19:09;98553.72;;;19.98;75.80
77171;BME280;66144;50.020;14.422;2023-09-12T00:21:34;98554.81;;;19.97;75.45
77171;BME280;66144;50.020;14.422;2023-09-12T00:23:59;98558.06;;;19.85;75.82
77171;BME280;66144;50.020;14.422;2023-09-12T00:26:25;98553.22;;;19.87;75.75
77171;BME280;66144;50.020;14.422;2023-09-12T00:28:50;98552.16;;;19.88;75.69
77171;BME280;66144;50.020;14.422;2023-09-12T00:31:16;98552.75;;;19.85;76.01
77171;BME280;66144;50.020;14.422;2023-09-12T00:33:41;98557.16;;;19.81;75.60
77171;BME280;66144;50.020;14.422;2023-09-12T00:36:06;98549.34;;;19.85;75.56
77171;BME280;66144;50.020;14.422;2023-09-12T00:38:32;98557.00;;;19.78;75.95
77171;BME280;66144;50.020;14.422;2023-09-12T00:40:57;98549.81;;;19.78;75.98
77171;BME280;66144;50.020;14.422;2023-09-12T00:43:22;98553.09;;;19.75;75.88
77171;BME280;66144;50.020;14.422;2023-09-12T00:45:48;98549.34;;;19.76;76.02
77171;BME280;66144;50.020;14.422;2023-09-12T00:48:14;98556.53;;;19.76;75.48
77171;BME280;66144;50.020;14.422;2023-09-12T00:50:41;98558.53;;;19.70;75.96
77171;BME280;66144;50.020;14.422;2023-09-12T00:53:08;98553.22;;;19.70;76.30
77171;BME280;66144;50.020;14.422;2023-09-12T00:55:34;98557.75;;;19.70;76.11
77171;BME280;66144;50.020;14.422;2023-09-12T00:58:02;98555.72;;;19.66;76.14
77171;BME280;66144;50.020;14.422;2023-09-12T01:00:28;98558.38;;;19.66;76.04
77171;BME280;66144;50.020;14.422;2023-09-12T01:02:54;98557.44;;;19.62;76.30
77171;BME280;66144;50.020;14.422;2023-09-12T01:05:20;98568.78;;;19.63;75.88
77171;BME280;66144;50.020;14.422;2023-09-12T01:07:46;98570.69;;;19.62;76.08
77171;BME280;66144;50.020;14.422;2023-09-12T01:10:12;98566.78;;;19.60;76.37
77171;BME280;66144;50.020;14.422;2023-09-12T01:12:37;98568.66;;;19.59;75.70
77171;BME280;66144;50.020;14.422;2023-09-12T01:15:04;98567.06;;;19.50;76.58
77171;BME280;66144;50.020;14.422;2023-09-12T01:17:33;98569.72;;;19.50;76.01
77171;BME280;66144;50.020;14.422;2023-09-12T01:20:00;98558.78;;;19.43;76.64
77171;BME280;66144;50.020;14.422;2023-09-12T01:28:20;98563.91;;;19.39;76.40
77171;BME280;66144;50.020;14.422;2023-09-12T01:30:48;98552.53;;;19.39;76.03
77171;BME280;66144;50.020;14.422;2023-09-12T01:33:15;98557.53;;;19.40;76.61
77171;BME280;66144;50.020;14.422;2023-09-12T01:35:41;98569.03;;;19.36;76.59
77171;BME280;66144;50.020;14.422;2023-09-12T01:38:06;98562.00;;;19.31;76.60
77171;BME280;66144;50.020;14.422;2023-09-12T01:40:38;98563.28;;;19.33;76.57
77171;BME280;66144;50.020;14.422;2023-09-12T01:43:06;98568.09;;;19.31;76.07
77171;BME280;66144;50.020;14.422;2023-09-12T01:45:32;98567.63;;;19.29;76.25
77171;BME280;66144;50.020;14.422;2023-09-12T01:48:00;98564.19;;;19.29;76.21
77171;BME280;66144;50.020;14.422;2023-09-12T01:50:27;98563.22;;;19.25;76.37
77171;BME280;66144;50.020;14.422;2023-09-12T01:52:53;98564.66;;;19.22;76.94
77171;BME280;66144;50.020;14.422;2023-09-12T01:55:20;98567.13;;;19.19;77.29
77171;BME280;66144;50.020;14.422;2023-09-12T01:57:46;98565.41;;;19.14;76.78
77171;BME280;66144;50.020;14.422;2023-09-12T02:00:13;98564.31;;;19.15;76.85
77171;BME280;66144;50.020;14.422;2023-09-12T02:02:38;98573.94;;;19.11;77.20
77171;BME280;66144;50.020;14.422;2023-09-12T02:05:10;98569.75;;;19.10;77.46
77171;BME280;66144;50.020;14.422;2023-09-12T02:07:40;98568.19;;;19.09;77.11
77171;BME280;66144;50.020;14.422;2023-09-12T02:10:06;98571.59;;;19.10;77.20
77171;BME280;66144;50.020;14.422;2023-09-12T02:12:32;98574.72;;;19.12;76.70
77171;BME280;66144;50.020;14.422;2023-09-12T02:14:57;98579.25;;;19.11;76.92
77171;BME280;66144;50.020;14.422;2023-09-12T02:17:22;98576.91;;;19.10;76.79
77171;BME280;66144;50.020;14.422;2023-09-12T02:19:48;98574.56;;;19.08;76.89
77171;BME280;66144;50.020;14.422;2023-09-12T02:22:14;98571.91;;;19.08;77.38
77171;BME280;66144;50.020;14.422;2023-09-12T02:24:39;98572.22;;;19.07;77.44
77171;BME280;66144;50.020;14.422;2023-09-12T02:27:04;98570.81;;;19.01;77.25
77171;BME280;66144;50.020;14.422;2023-09-12T02:29:30;98577.97;;;19.00;77.16
77171;BME280;66144;50.020;14.422;2023-09-12T02:31:57;98567.97;;;18.97;77.05
77171;BME280;66144;50.020;14.422;2023-09-12T02:34:23;98573.28;;;18.97;76.89
77171;BME280;66144;50.020;14.422;2023-09-12T02:36:48;98574.06;;;18.97;77.33
77171;BME280;66144;50.020;14.422;2023-09-12T02:39:14;98580.75;;;18.95;77.11
77171;BME280;66144;50.020;14.422;2023-09-12T02:41:39;98581.66;;;18.90;77.11
77171;BME280;66144;50.020;14.422;2023-09-12T02:44:05;98583.50;;;18.90;77.15
77171;BME280;66144;50.020;14.422;2023-09-12T02:46:30;98581.66;;;18.90;77.00
77171;BME280;66144;50.020;14.422;2023-09-12T02:48:55;98581.81;;;18.85;77.39
77171;BME280;66144;50.020;14.422;2023-09-12T02:51:21;98585.53;;;18.84;76.95
77171;BME280;66144;50.020;14.422;2023-09-12T02:53:46;98582.81;;;18.76;77.63
77171;BME280;66144;50.020;14.422;2023-09-12T02:56:11;98578.63;;;18.75;77.61
77171;BME280;66144;50.020;14.422;2023-09-12T02:58:37;98587.63;;;18.74;77.91
77171;BME280;66144;50.020;14.422;2023-09-12T03:01:02;98585.00;;;18.74;77.46
77171;BME280;66144;50.020;14.422;2023-09-12T03:03:30;98582.03;;;18.75;77.50
77171;BME280;66144;50.020;14.422;2023-09-12T03:05:59;98574.59;;;18.77;77.27
77171;BME280;66144;50.020;14.422;2023-09-12T03:08:24;98577.84;;;18.74;77.67
77171;BME280;66144;50.020;14.422;2023-09-12T03:10:56;98572.53;;;18.74;77.38
77171;BME280;66144;50.020;14.422;2023-09-12T03:13:26;98577.19;;;18.69;77.78
77171;BME280;66144;50.020;14.422;2023-09-12T03:15:52;98577.03;;;18.65;77.79
77171;BME280;66144;50.020;14.422;2023-09-12T03:18:18;98575.16;;;18.66;77.77
77171;BME280;66144;50.020;14.422;2023-09-12T03:20:43;98574.69;;;18.63;77.97
77171;BME280;66144;50.020;14.422;2023-09-12T03:23:08;98568.22;;;18.56;78.34
77171;BME280;66144;50.020;14.422;2023-09-12T03:25:37;98574.28;;;18.56;78.05
77171;BME280;66144;50.020;14.422;2023-09-12T03:28:04;98573.50;;;18.56;78.12
77171;BME280;66144;50.020;14.422;2023-09-12T03:30:30;98581.16;;;18.57;77.89
77171;BME280;66144;50.020;14.422;2023-09-12T03:32:56;98572.13;;;18.58;77.84
77171;BME280;66144;50.020;14.422;2023-09-12T03:35:21;98570.00;;;18.60;77.47
77171;BME280;66144;50.020;14.422;2023-09-12T03:37:46;98573.22;;;18.57;78.01
77171;BME280;66144;50.020;14.422;2023-09-12T03:40:12;98577.41;;;18.58;78.16
77171;BME280;66144;50.020;14.422;2023-09-12T03:42:37;98576.38;;;18.59;77.84
77171;BME280;66144;50.020;14.422;2023-09-12T03:45:03;98571.66;;;18.56;78.18
77171;BME280;66144;50.020;14.422;2023-09-12T03:47:28;98571.06;;;18.59;78.04
77171;BME280;66144;50.020;14.422;2023-09-12T03:49:54;98574.19;;;18.61;77.88
77171;BME280;66144;50.020;14.422;2023-09-12T03:52:19;98570.56;;;18.57;78.23
77171;BME280;66144;50.020;14.422;2023-09-12T03:54:44;98575.84;;;18.57;78.19
77171;BME280;66144;50.020;14.422;2023-09-12T03:57:10;98579.06;;;18.46;78.55
77171;BME280;66144;50.020;14.422;2023-09-12T03:59:35;98578.50;;;18.57;78.58
77171;BME280;66144;50.020;14.422;2023-09-12T04:02:02;98569.69;;;18.62;78.58
77171;BME280;66144;50.020;14.422;2023-09-12T04:04:28;98583.88;;;18.66;78.06
77171;BME280;66144;50.020;14.422;2023-09-12T04:06:53;98577.97;;;18.69;78.48
77171;BME280;66144;50.020;14.422;2023-09-12T04:09:20;98578.25;;;18.68;78.74
77171;BME280;66144;50.020;14.422;2023-09-12T04:11:45;98582.63;;;18.63;78.20
77171;BME280;66144;50.020;14.422;2023-09-12T04:14:11;98572.53;;;18.66;77.99
77171;BME280;66144;50.020;14.422;2023-09-12T04:16:36;98571.56;;;18.61;78.72
77171;BME280;66144;50.020;14.422;2023-09-12T04:19:02;98580.44;;;18.66;78.73
77171;BME280;66144;50.020;14.422;2023-09-12T04:21:28;98586.19;;;18.68;77.99
77171;BME280;66144;50.020;14.422;2023-09-12T04:23:53;98577.81;;;18.66;78.10
77171;BME280;66144;50.020;14.422;2023-09-12T04:26:19;98577.41;;;18.58;77.97
77171;BME280;66144;50.020;14.422;2023-09-12T04:28:46;98578.41;;;18.62;77.82
77171;BME280;66144;50.020;14.422;2023-09-12T04:31:12;98579.19;;;18.63;77.79
77171;BME280;66144;50.020;14.422;2023-09-12T04:33:37;98579.09;;;18.54;77.60
77171;BME280;66144;50.020;14.422;2023-09-12T04:36:03;98576.44;;;18.54;77.53
77171;BME280;66144;50.020;14.422;2023-09-12T04:38:28;98583.59;;;18.54;77.76
77171;BME280;66144;50.020;14.422;2023-09-12T04:40:56;98583.38;;;18.42;78.36
77171;BME280;66144;50.020;14.422;2023-09-12T04:43:23;98578.72;;;18.47;77.62
77171;BME280;66144;50.020;14.422;2023-09-12T04:45:48;98578.13;;;18.50;77.64
77171;BME280;66144;50.020;14.422;2023-09-12T04:48:14;98587.91;;;18.41;77.58
77171;BME280;66144;50.020;14.422;2023-09-12T04:50:42;98581.38;;;18.47;77.36
77171;BME280;66144;50.020;14.422;2023-09-12T04:53:08;98583.56;;;18.45;77.33
77171;BME280;66144;50.020;14.422;2023-09-12T04:55:36;98583.09;;;18.43;77.88
77171;BME280;66144;50.020;14.422;2023-09-12T04:58:03;98582.00;;;18.44;77.40
77171;BME280;66144;50.020;14.422;2023-09-12T05:00:29;98591.63;;;18.40;77.61
77171;BME280;66144;50.020;14.422;2023-09-12T05:02:54;98588.38;;;18.43;78.01
77171;BME280;66144;50.020;14.422;2023-09-12T05:05:20;98592.09;;;18.42;78.28
77171;BME280;66144;50.020;14.422;2023-09-12T05:07:45;98589.63;;;18.46;77.47
77171;BME280;66144;50.020;14.422;2023-09-12T05:10:10;98591.22;;;18.47;77.89
77171;BME280;66144;50.020;14.422;2023-09-12T05:12:36;98592.09;;;18.42;78.04
77171;BME280;66144;50.020;14.422;2023-09-12T05:15:01;98599.56;;;18.40;77.75
77171;BME280;66144;50.020;14.422;2023-09-12T05:17:27;98606.88;;;18.43;78.05
77171;BME280;66144;50.020;14.422;2023-09-12T05:19:53;98607.81;;;18.47;77.66
77171;BME280;66144;50.020;14.422;2023-09-12T05:22:18;98600.38;;;18.49;77.39
77171;BME280;66144;50.020;14.422;2023-09-12T05:24:43;98602.72;;;18.51;77.57
77171;BME280;66144;50.020;14.422;2023-09-12T05:27:10;98604.59;;;18.50;77.58
77171;BME280;66144;50.020;14.422;2023-09-12T05:29:35;98599.78;;;18.52;78.01
77171;BME280;66144;50.020;14.422;2023-09-12T05:32:01;98598.56;;;18.58;78.08
77171;BME280;66144;50.020;14.422;2023-09-12T05:34:26;98596.16;;;18.62;78.26
77171;BME280;66144;50.020;14.422;2023-09-12T05:36:52;98601.13;;;18.63;77.73
77171;BME280;66144;50.020;14.422;2023-09-12T05:39:17;98598.81;;;18.71;78.08
77171;BME280;66144;50.020;14.422;2023-09-12T05:41:43;98597.25;;;18.70;78.00
77171;BME280;66144;50.020;14.422;2023-09-12T05:44:08;98605.56;;;18.77;78.05
77171;BME280;66144;50.020;14.422;2023-09-12T05:46:34;98612.91;;;18.80;78.28
77171;BME280;66144;50.020;14.422;2023-09-12T05:49:00;98610.13;;;18.85;78.63
77171;BME280;66144;50.020;14.422;2023-09-12T05:51:25;98599.56;;;18.93;77.94
77171;BME280;66144;50.020;14.422;2023-09-12T05:53:51;98609.38;;;18.93;77.08
77171;BME280;66144;50.020;14.422;2023-09-12T05:56:16;98607.88;;;19.01;77.09
77171;BME280;66144;50.020;14.422;2023-09-12T05:58:41;98611.63;;;19.08;77.15
77171;BME280;66144;50.020;14.422;2023-09-12T06:01:08;98605.13;;;19.14;76.91
77171;BME280;66144;50.020;14.422;2023-09-12T06:03:34;98606.84;;;19.19;76.89
77171;BME280;66144;50.020;14.422;2023-09-12T06:05:59;98614.03;;;19.27;76.47
77171;BME280;66144;50.020;14.422;2023-09-12T06:08:24;98611.56;;;19.30;76.00
77171;BME280;66144;50.020;14.422;2023-09-12T06:10:50;98615.03;;;19.40;75.93
77171;BME280;66144;50.020;14.422;2023-09-12T06:13:19;98616.91;;;19.48;75.66
77171;BME280;66144;50.020;14.422;2023-09-12T06:15:45;98615.09;;;19.57;75.25
77171;BME280;66144;50.020;14.422;2023-09-12T06:18:10;98610.13;;;19.73;74.83
77171;BME280;66144;50.020;14.422;2023-09-12T06:20:36;98611.41;;;19.92;74.09
77171;BME280;66144;50.020;14.422;2023-09-12T06:23:01;98609.72;;;19.96;73.39
77171;BME280;66144;50.020;14.422;2023-09-12T06:25:28;98612.53;;;20.00;73.27
77171;BME280;66144;50.020;14.422;2023-09-12T06:27:54;98611.72;;;19.91;73.47
77171;BME280;66144;50.020;14.422;2023-09-12T06:30:20;98615.16;;;20.09;73.09
77171;BME280;66144;50.020;14.422;2023-09-12T06:32:45;98617.03;;;20.17;73.27
77171;BME280;66144;50.020;14.422;2023-09-12T06:35:11;98616.44;;;20.20;72.54
77171;BME280;66144;50.020;14.422;2023-09-12T06:37:38;98617.34;;;20.41;72.45
77171;BME280;66144;50.020;14.422;2023-09-12T06:40:04;98614.84;;;20.53;71.96
77171;BME280;66144;50.020;14.422;2023-09-12T06:42:29;98619.81;;;20.63;71.64
77171;BME280;66144;50.020;14.422;2023-09-12T06:44:55;98619.97;;;20.76;71.22
77171;BME280;66144;50.020;14.422;2023-09-12T06:47:20;98617.44;;;20.79;71.32
77171;BME280;66144;50.020;14.422;2023-09-12T06:49:45;98619.00;;;20.89;71.19
77171;BME280;66144;50.020;14.422;2023-09-12T06:52:11;98616.03;;;20.90;70.07
77171;BME280;66144;50.020;14.422;2023-09-12T06:54:36;98624.88;;;21.03;70.04
77171;BME280;66144;50.020;14.422;2023-09-12T06:57:01;98619.88;;;21.10;69.81
77171;BME280;66144;50.020;14.422;2023-09-12T06:59:27;98622.34;;;21.15;69.83
77171;BME280;66144;50.020;14.422;2023-09-12T07:01:52;98623.09;;;21.33;69.69
77171;BME280;66144;50.020;14.422;2023-09-12T07:04:18;98621.44;;;21.49;69.72
77171;BME280;66144;50.020;14.422;2023-09-12T07:06:43;98624.72;;;21.96;67.65
77171;BME280;66144;50.020;14.422;2023-09-12T07:09:09;98625.00;;;22.78;64.71
77171;BME280;66144;50.020;14.422;2023-09-12T07:11:36;98626.66;;;23.64;62.83
77171;BME280;66144;50.020;14.422;2023-09-12T07:14:02;98616.50;;;24.50;59.60
77171;BME280;66144;50.020;14.422;2023-09-12T07:16:30;98622.22;;;25.08;58.15
77171;BME280;66144;50.020;14.422;2023-09-12T07:18:55;98616.63;;;25.99;54.76
77171;BME280;66144;50.020;14.422;2023-09-12T07:21:20;98620.75;;;26.51;53.40
77171;BME280;66144;50.020;14.422;2023-09-12T07:23:48;98628.69;;;27.08;51.75
77171;BME280;66144;50.020;14.422;2023-09-12T07:26:14;98619.16;;;27.37;50.33
77171;BME280;66144;50.020;14.422;2023-09-12T07:28:40;98607.88;;;28.11;50.37
77171;BME280;66144;50.020;14.422;2023-09-12T07:31:05;98617.13;;;28.80;47.60
77171;BME280;66144;50.020;14.422;2023-09-12T07:33:31;98612.50;;;29.29;46.20
77171;BME280;66144;50.020;14.422;2023-09-12T07:35:56;98614.69;;;29.60;45.06
77171;BME280;66144;50.020;14.422;2023-09-12T07:38:22;98617.63;;;30.10;44.15
77171;BME280;66144;50.020;14.422;2023-09-12T07:40:47;98617.22;;;30.04;43.49
77171;BME280;66144;50.020;14.422;2023-09-12T07:43:13;98612.63;;;30.12;42.90
77171;BME280;66144;50.020;14.422;2023-09-12T07:45:38;98625.25;;;29.97;42.74
77171;BME280;66144;50.020;14.422;2023-09-12T07:48:08;98616.22;;;30.51;42.41
77171;BME280;66144;50.020;14.422;2023-09-12T07:50:36;98610.53;;;31.24;41.45
77171;BME280;66144;50.020;14.422;2023-09-12T07:53:04;98619.78;;;31.23;41.00
77171;BME280;66144;50.020;14.422;2023-09-12T07:55:30;98625.16;;;31.48;41.23
77171;BME280;66144;50.020;14.422;2023-09-12T07:57:59;98616.66;;;31.42;39.82
77171;BME280;66144;50.020;14.422;2023-09-12T08:00:25;98617.09;;;31.27;40.79
77171;BME280;66144;50.020;14.422;2023-09-12T08:02:50;98617.81;;;31.70;40.64
77171;BME280;66144;50.020;14.422;2023-09-12T08:05:16;98626.69;;;31.74;40.53
77171;BME280;66144;50.020;14.422;2023-09-12T08:07:41;98623.47;;;32.00;40.19
77171;BME280;66144;50.020;14.422;2023-09-12T08:10:07;98618.78;;;32.25;39.02
77171;BME280;66144;50.020;14.422;2023-09-12T08:12:32;98622.53;;;32.46;37.82
77171;BME280;66144;50.020;14.422;2023-09-12T08:14:58;98620.81;;;32.73;38.37
77171;BME280;66144;50.020;14.422;2023-09-12T08:17:24;98623.69;;;33.04;38.20
77171;BME280;66144;50.020;14.422;2023-09-12T08:19:49;98623.28;;;33.05;38.41
77171;BME280;66144;50.020;14.422;2023-09-12T08:22:15;98626.22;;;33.25;37.22
77171;BME280;66144;50.020;14.422;2023-09-12T08:24:40;98623.94;;;33.61;35.99
77171;BME280;66144;50.020;14.422;2023-09-12T08:27:06;98622.25;;;33.74;35.85
77171;BME280;66144;50.020;14.422;2023-09-12T08:29:33;98616.19;;;33.63;35.08
77171;BME280;66144;50.020;14.422;2023-09-12T08:31:59;98627.59;;;33.47;36.13
77171;BME280;66144;50.020;14.422;2023-09-12T08:34:25;98626.31;;;32.55;38.46
77171;BME280;66144;50.020;14.422;2023-09-12T08:36:50;98625.81;;;31.98;38.78
77171;BME280;66144;50.020;14.422;2023-09-12T08:39:25;98627.44;;;31.60;40.22
77171;BME280;66144;50.020;14.422;2023-09-12T08:41:52;98626.75;;;31.13;41.58
77171;BME280;66144;50.020;14.422;2023-09-12T08:44:18;98627.81;;;30.66;42.02
77171;BME280;66144;50.020;14.422;2023-09-12T08:46:45;98626.53;;;30.28;43.72
77171;BME280;66144;50.020;14.422;2023-09-12T08:49:10;98624.53;;;30.04;43.75
77171;BME280;66144;50.020;14.422;2023-09-12T08:51:39;98619.66;;;29.58;44.42
77171;BME280;66144;50.020;14.422;2023-09-12T08:54:05;98617.28;;;29.49;46.00
77171;BME280;66144;50.020;14.422;2023-09-12T08:56:32;98619.19;;;29.45;44.98
77171;BME280;66144;50.020;14.422;2023-09-12T08:59:00;98616.16;;;29.50;46.66
77171;BME280;66144;50.020;14.422;2023-09-12T09:01:26;98615.09;;;29.66;45.92
77171;BME280;66144;50.020;14.422;2023-09-12T09:03:55;98619.72;;;29.69;44.98
77171;BME280;66144;50.020;14.422;2023-09-12T09:06:22;98611.72;;;29.21;46.43
77171;BME280;66144;50.020;14.422;2023-09-12T09:08:48;98608.63;;;29.77;45.81
77171;BME280;66144;50.020;14.422;2023-09-12T09:11:14;98615.59;;;29.93;44.62
77171;BME280;66144;50.020;14.422;2023-09-12T09:13:39;98617.84;;;29.76;46.25
77171;BME280;66144;50.020;14.422;2023-09-12T09:16:15;98608.91;;;29.58;45.86
77171;BME280;66144;50.020;14.422;2023-09-12T09:21:21;98607.75;;;29.04;47.48
77171;BME280;66144;50.020;14.422;2023-09-12T09:23:51;98611.88;;;28.95;47.82
77171;BME280;66144;50.020;14.422;2023-09-12T09:26:17;98612.03;;;28.72;47.28
77171;BME280;66144;50.020;14.422;2023-09-12T09:28:42;98609.50;;;28.86;47.75
77171;BME280;66144;50.020;14.422;2023-09-12T09:31:12;98602.84;;;28.76;46.70
77171;BME280;66144;50.020;14.422;2023-09-12T09:33:41;98605.06;;;28.67;48.05
77171;BME280;66144;50.020;14.422;2023-09-12T09:36:10;98608.91;;;28.66;48.06
77171;BME280;66144;50.020;14.422;2023-09-12T09:38:36;98598.53;;;28.65;47.02
77171;BME280;66144;50.020;14.422;2023-09-12T09:41:06;98598.53;;;28.65;48.01
77171;BME280;66144;50.020;14.422;2023-09-12T09:43:32;98591.63;;;28.67;47.90
77171;BME280;66144;50.020;14.422;2023-09-12T09:45:57;98600.44;;;28.64;47.76
77171;BME280;66144;50.020;14.422;2023-09-12T09:48:24;98591.13;;;28.54;47.95
77171;BME280;66144;50.020;14.422;2023-09-12T09:51:00;98591.09;;;28.51;48.32
77171;BME280;66144;50.020;14.422;2023-09-12T09:53:30;98593.88;;;28.62;48.80
77171;BME280;66144;50.020;14.422;2023-09-12T09:56:14;98590.75;;;28.56;49.58
77171;BME280;66144;50.020;14.422;2023-09-12T09:58:56;98586.22;;;28.64;47.80
77171;BME280;66144;50.020;14.422;2023-09-12T10:01:25;98584.59;;;28.56;48.17
77171;BME280;66144;50.020;14.422;2023-09-12T10:03:52;98585.81;;;28.62;47.43
77171;BME280;66144;50.020;14.422;2023-09-12T10:06:20;98576.94;;;28.58;48.05
77171;BME280;66144;50.020;14.422;2023-09-12T10:08:51;98573.63;;;28.75;47.71
77171;BME280;66144;50.020;14.422;2023-09-12T10:11:18;98571.47;;;28.84;47.18
77171;BME280;66144;50.020;14.422;2023-09-12T10:13:56;98564.19;;;28.92;47.60
77171;BME280;66144;50.020;14.422;2023-09-12T10:16:24;98569.66;;;28.99;48.29
77171;BME280;66144;50.020;14.422;2023-09-12T10:18:58;98569.34;;;29.11;48.70
77171;BME280;66144;50.020;14.422;2023-09-12T10:21:29;98564.81;;;29.26;48.10
77171;BME280;66144;50.020;14.422;2023-09-12T10:23:56;98554.50;;;29.35;47.82
77171;BME280;66144;50.020;14.422;2023-09-12T10:26:23;98553.81;;;29.45;46.21
77171;BME280;66144;50.020;14.422;2023-09-12T10:28:50;98550.81;;;29.57;45.94
77171;BME280;66144;50.020;14.422;2023-09-12T10:31:16;98550.84;;;29.68;45.25
77171;BME280;66144;50.020;14.422;2023-09-12T10:33:43;98553.97;;;29.77;44.59
77171;BME280;66144;50.020;14.422;2023-09-12T10:36:11;98547.09;;;29.90;44.10
77171;BME280;66144;50.020;14.422;2023-09-12T10:38:42;98553.34;;;30.01;44.60
77171;BME280;66144;50.020;14.422;2023-09-12T10:41:12;98545.66;;;30.10;44.20
77171;BME280;66144;50.020;14.422;2023-09-12T10:43:55;98537.59;;;30.24;42.77
77171;BME280;66144;50.020;14.422;2023-09-12T10:46:23;98537.66;;;30.53;44.37
77171;BME280;66144;50.020;14.422;2023-09-12T10:48:49;98535.38;;;30.73;43.95
77171;BME280;66144;50.020;14.422;2023-09-12T10:51:16;98536.13;;;30.98;43.58
77171;BME280;66144;50.020;14.422;2023-09-12T10:53:46;98533.03;;;31.00;42.26
77171;BME280;66144;50.020;14.422;2023-09-12T11:01:32;98535.53;;;31.88;40.59
77171;BME280;66144;50.020;14.422;2023-09-12T11:03:58;98530.72;;;32.17;40.27
77171;BME280;66144;50.020;14.422;2023-09-12T11:06:30;98532.63;;;32.28;37.56
77171;BME280;66144;50.020;14.422;2023-09-12T11:11:44;98538.47;;;32.74;36.41
77171;BME280;66144;50.020;14.422;2023-09-12T11:14:12;98527.50;;;32.44;35.21
77171;BME280;66144;50.020;14.422;2023-09-12T11:16:37;98533.06;;;32.74;35.69
77171;BME280;66144;50.020;14.422;2023-09-12T11:19:20;98529.31;;;33.06;35.90
77171;BME280;66144;50.020;14.422;2023-09-12T11:21:54;98532.94;;;33.29;37.71
77171;BME280;66144;50.020;14.422;2023-09-12T11:24:21;98535.47;;;33.47;36.22
77171;BME280;66144;50.020;14.422;2023-09-12T11:27:00;98529.22;;;33.50;35.57
77171;BME280;66144;50.020;14.422;2023-09-12T11:29:37;98529.91;;;33.61;35.91
77171;BME280;66144;50.020;14.422;2023-09-12T11:32:04;98538.25;;;33.74;37.39
77171;BME280;66144;50.020;14.422;2023-09-12T11:34:40;98532.31;;;33.52;34.47
77171;BME280;66144;50.020;14.422;2023-09-12T11:37:07;98533.19;;;33.80;34.17
77171;BME280;66144;50.020;14.422;2023-09-12T11:39:34;98524.72;;;33.71;34.55
77171;BME280;66144;50.020;14.422;2023-09-12T11:42:01;98537.78;;;33.83;35.84
77171;BME280;66144;50.020;14.422;2023-09-12T11:44:27;98532.91;;;34.01;35.69
77171;BME280;66144;50.020;14.422;2023-09-12T11:46:53;98540.63;;;34.03;35.17
77171;BME280;66144;50.020;14.422;2023-09-12T11:49:20;98534.47;;;33.99;34.17
77171;BME280;66144;50.020;14.422;2023-09-12T11:51:53;98527.31;;;34.12;35.17
77171;BME280;66144;50.020;14.422;2023-09-12T11:54:24;98532.78;;;34.08;34.58
77171;BME280;66144;50.020;14.422;2023-09-12T11:56:50;98529.47;;;34.24;34.32
77171;BME280;66144;50.020;14.422;2023-09-12T11:59:25;98520.22;;;34.21;37.55
77171;BME280;66144;50.020;14.422;2023-09-12T12:01:52;98519.22;;;34.08;34.04
77171;BME280;66144;50.020;14.422;2023-09-12T12:04:19;98518.13;;;33.72;34.54
77171;BME280;66144;50.020;14.422;2023-09-12T12:06:45;98525.50;;;33.71;35.48
77171;BME280;66144;50.020;14.422;2023-09-12T12:09:10;98526.19;;;33.48;37.80
77171;BME280;66144;50.020;14.422;2023-09-12T12:11:36;98520.88;;;33.38;36.36
77171;BME280;66144;50.020;14.422;2023-09-12T12:14:15;98525.97;;;33.32;37.02
77171;BME280;66144;50.020;14.422;2023-09-12T12:16:41;98524.66;;;33.10;35.36
77171;BME280;66144;50.020;14.422;2023-09-12T12:19:08;98514.69;;;32.96;38.40
77171;BME280;66144;50.020;14.422;2023-09-12T12:21:34;98521.03;;;32.82;36.90
77171;BME280;66144;50.020;14.422;2023-09-12T12:24:03;98517.66;;;32.68;37.46
77171;BME280;66144;50.020;14.422;2023-09-12T12:26:30;98517.31;;;32.62;38.37
77171;BME280;66144;50.020;14.422;2023-09-12T12:28:55;98511.28;;;32.40;38.72
77171;BME280;66144;50.020;14.422;2023-09-12T12:31:22;98514.50;;;32.24;38.96
77171;BME280;66144;50.020;14.422;2023-09-12T12:33:53;98508.44;;;31.99;43.24
77171;BME280;66144;50.020;14.422;2023-09-12T12:36:19;98516.59;;;31.92;42.83
77171;BME280;66144;50.020;14.422;2023-09-12T12:38:48;98508.53;;;31.85;41.72
77171;BME280;66144;50.020;14.422;2023-09-12T12:41:16;98504.72;;;31.65;45.46
77171;BME280;66144;50.020;14.422;2023-09-12T12:43:42;98504.00;;;31.53;45.30
77171;BME280;66144;50.020;14.422;2023-09-12T12:46:11;98496.25;;;31.66;40.97
77171;BME280;66144;50.020;14.422;2023-09-12T12:48:38;98490.84;;;31.70;40.28
77171;BME280;66144;50.020;14.422;2023-09-12T12:53:46;98496.16;;;31.84;37.39
77171;BME280;66144;50.020;14.422;2023-09-12T12:56:23;98476.94;;;31.64;35.76
77171;BME280;66144;50.020;14.422;2023-09-12T12:58:55;98480.03;;;31.70;36.36
77171;BME280;66144;50.020;14.422;2023-09-12T13:01:21;98470.75;;;31.74;37.31
77171;BME280;66144;50.020;14.422;2023-09-12T13:03:46;98468.06;;;31.74;37.50
77171;BME280;66144;50.020;14.422;2023-09-12T13:06:12;98470.00;;;31.74;36.38
77171;BME280;66144;50.020;14.422;2023-09-12T13:08:45;98462.97;;;31.83;37.73